Weather reports worldwide

Advertisment
Manchester/Intl, United Kingdom (3334): temperature & dewpoint: 16.06.2018 14:00:00 - 22.06.2018 14:00:00 (BST)Manchester/Intl, United Kingdom (3334): wind speed: 16.06.2018 14:00:00 - 22.06.2018 14:00:00 (BST)Manchester/Intl, United Kingdom (3334): wind direction: 16.06.2018 14:00:00 - 22.06.2018 14:00:00 (BST)Manchester/Intl, United Kingdom (3334): visibility: 16.06.2018 14:00:00 - 22.06.2018 14:00:00 (BST)
Date & Time tt [°C] td [°C] ff [km/h] ff [kn] dd vv [km]
22.06.2018 14:00:00 19,0 5,0 15 8 WNW 10
22.06.2018 13:00:00 18,0 6,0 9 5 NNW 10
22.06.2018 12:00:00 17,0 4,0 11 6 NW 10
22.06.2018 11:00:00 16,0 5,0 9 5 NNW 10
22.06.2018 10:00:00 14,0 6,0 9 5 W 10
22.06.2018 09:00:00 13,0 7,0 11 6 W 10
22.06.2018 08:00:00 12,0 7,0 9 5 NW 10
22.06.2018 07:00:00 11,0 8,0 11 6 NW 10
22.06.2018 06:00:00 10,0 8,0 11 6 NW 10
22.06.2018 05:00:00 7,0 7,0 5 3 W 10
22.06.2018 04:00:00 9,0 8,0 11 6 WNW 10
22.06.2018 03:00:00 10,0 8,0 9 5 W 10
22.06.2018 02:00:00 9,0 8,0 5 3 - 10
22.06.2018 01:00:00 11,0 8,0 9 5 WNW 10
22.06.2018 00:00:00 12,0 8,0 9 5 WNW 10
21.06.2018 23:00:00 12,0 7,0 9 5 WNW 10
21.06.2018 22:00:00 13,0 7,0 9 5 WNW 10
21.06.2018 21:00:00 14,0 6,0 21 11 WNW 10
21.06.2018 20:00:00 15,0 5,0 22 12 WNW 10
21.06.2018 19:00:00 15,0 5,0 24 13 WNW 10
21.06.2018 18:00:00 16,0 5,0 24 13 WNW 10
21.06.2018 17:00:00 16,0 5,0 24 13 WNW 10
21.06.2018 16:00:00 16,0 5,0 29 16 WNW 10
21.06.2018 15:00:00 16,0 4,0 31 17 WNW 10
21.06.2018 14:00:00 15,0 4,0 28 15 WNW 10
21.06.2018 13:00:00 16,0 5,0 22 12 WNW 10
21.06.2018 12:00:00 16,0 3,0 22 12 NNW 10
21.06.2018 11:00:00 15,0 3,0 24 13 NW 10
21.06.2018 10:00:00 14,0 3,0 28 15 NNW 10
21.06.2018 09:00:00 12,0 3,0 22 12 NNW 10
21.06.2018 08:00:00 12,0 5,0 22 12 NW 10
21.06.2018 07:00:00 12,0 5,0 24 13 WNW 10
21.06.2018 06:00:00 11,0 5,0 16 9 W 10
21.06.2018 05:00:00 10,0 5,0 16 9 W 10
21.06.2018 04:00:00 11,0 6,0 22 12 WNW 10
21.06.2018 03:00:00 11,0 6,0 22 12 WNW 10
21.06.2018 02:00:00 12,0 6,0 22 12 WNW 10
21.06.2018 01:00:00 10,0 6,0 11 6 WSW 10
21.06.2018 00:00:00 11,0 6,0 9 5 W 10
20.06.2018 23:00:00 12,0 6,0 11 6 WNW 10
20.06.2018 22:00:00 13,0 6,0 11 6 WNW 10
20.06.2018 21:00:00 14,0 5,0 21 11 WNW 10
20.06.2018 20:00:00 14,0 4,0 21 11 WNW 10
20.06.2018 19:00:00 15,0 6,0 24 13 WNW 10
20.06.2018 18:00:00 16,0 7,0 26 14 NW 10
20.06.2018 17:00:00 16,0 8,0 28 15 WNW 10
20.06.2018 16:00:00 15,0 8,0 26 14 WNW 10
20.06.2018 15:00:00 15,0 10,0 26 14 WNW 10
20.06.2018 14:00:00 15,0 12,0 26 14 WNW 10
20.06.2018 13:00:00 18,0 14,0 22 12 W 10
20.06.2018 12:00:00 20,0 13,0 31 17 WSW 10
20.06.2018 11:00:00 19,0 13,0 35 19 WSW 10
20.06.2018 10:00:00 19,0 14,0 35 19 WSW 10
20.06.2018 09:00:00 18,0 15,0 22 12 SW 10
20.06.2018 08:00:00 18,0 14,0 21 11 SSW 10
20.06.2018 07:00:00 17,0 14,0 18 10 SSW 10
20.06.2018 06:00:00 16,0 14,0 18 10 SSW 10
20.06.2018 05:00:00 16,0 14,0 15 8 SSW 10
20.06.2018 04:00:00 17,0 14,0 16 9 SSW 10
20.06.2018 03:00:00 17,0 14,0 11 6 S 10
20.06.2018 02:00:00 17,0 14,0 13 7 SSW 10
20.06.2018 01:00:00 17,0 14,0 13 7 SSW 10
20.06.2018 00:00:00 18,0 15,0 16 9 S 10
19.06.2018 23:00:00 18,0 15,0 15 8 SSW 10
19.06.2018 22:00:00 19,0 15,0 16 9 SSW 10
19.06.2018 21:00:00 19,0 15,0 16 9 SSW 10
19.06.2018 20:00:00 20,0 15,0 24 13 SW 10
19.06.2018 19:00:00 20,0 15,0 18 10 SW 10
19.06.2018 18:00:00 21,0 15,0 24 13 SW 10
19.06.2018 17:00:00 21,0 15,0 26 14 SW 10
19.06.2018 16:00:00 20,0 15,0 18 10 SW 10
19.06.2018 15:00:00 19,0 15,0 13 7 SW 10
19.06.2018 14:00:00 20,0 14,0 21 11 SW 10
19.06.2018 13:00:00 17,0 13,0 13 7 SSW 10
19.06.2018 12:00:00 17,0 12,0 11 6 SW 10
19.06.2018 11:00:00 18,0 10,0 16 9 SW 10
19.06.2018 10:00:00 15,0 10,0 11 6 SW 10
19.06.2018 09:00:00 15,0 9,0 9 5 W 10
19.06.2018 08:00:00 14,0 8,0 8 4 WSW 10
19.06.2018 07:00:00 13,0 9,0 8 4 W 10
19.06.2018 06:00:00 12,0 10,0 5 3 SW 10
19.06.2018 05:00:00 12,0 11,0 5 3 W 10
19.06.2018 04:00:00 13,0 12,0 15 8 WNW 10
19.06.2018 03:00:00 14,0 12,0 13 7 W 10
19.06.2018 02:00:00 15,0 14,0 16 9 W 10
19.06.2018 01:00:00 15,0 15,0 15 8 W 4,4
19.06.2018 00:00:00 15,0 15,0 18 10 W 3,1
18.06.2018 23:00:00 17,0 14,0 22 12 WSW 10
18.06.2018 22:00:00 18,0 14,0 24 13 WSW 10
18.06.2018 21:00:00 18,0 14,0 11 6 SSW 10
18.06.2018 20:00:00 18,0 14,0 26 14 WSW 10
18.06.2018 19:00:00 18,0 14,0 22 12 SW 10
18.06.2018 18:00:00 18,0 14,0 15 8 SSW 10
18.06.2018 17:00:00 18,0 13,0 15 8 SW 10
18.06.2018 16:00:00 18,0 11,0 22 12 WSW 10
18.06.2018 15:00:00 19,0 10,0 16 9 WSW 10
18.06.2018 14:00:00 18,0 10,0 24 13 WSW 10
18.06.2018 13:00:00 18,0 9,0 16 9 SW 10
18.06.2018 12:00:00 17,0 8,0 21 11 W 10
18.06.2018 11:00:00 16,0 8,0 22 12 W 10
18.06.2018 10:00:00 15,0 9,0 16 9 W 10
18.06.2018 09:00:00 14,0 8,0 21 11 W 10
18.06.2018 08:00:00 14,0 9,0 18 10 W 10
18.06.2018 07:00:00 14,0 10,0 16 9 W 10
18.06.2018 06:00:00 13,0 11,0 11 6 W 10
18.06.2018 05:00:00 13,0 12,0 13 7 W 10
18.06.2018 04:00:00 14,0 13,0 15 8 WSW 10
18.06.2018 03:00:00 15,0 13,0 15 8 WSW 10
18.06.2018 02:00:00 15,0 13,0 13 7 SW 10
18.06.2018 01:00:00 15,0 13,0 15 8 SW 10
18.06.2018 00:00:00 16,0 13,0 13 7 SW 10
17.06.2018 23:00:00 16,0 14,0 13 7 SSW 10
17.06.2018 22:00:00 17,0 13,0 15 8 SSW 10
17.06.2018 21:00:00 17,0 14,0 11 6 SSW 10
17.06.2018 20:00:00 17,0 14,0 13 7 SSW 10
17.06.2018 19:00:00 16,0 13,0 13 7 S 10
17.06.2018 18:00:00 15,0 13,0 13 7 S 10
17.06.2018 17:00:00 16,0 13,0 13 7 S 10
17.06.2018 16:00:00 16,0 11,0 13 7 S 10
17.06.2018 15:00:00 16,0 10,0 15 8 S 10
17.06.2018 14:00:00 16,0 10,0 11 6 S 10
17.06.2018 13:00:00 16,0 9,0 16 9 SW 10
17.06.2018 12:00:00 16,0 9,0 18 10 SW 10
17.06.2018 11:00:00 15,0 9,0 16 9 SW 10
17.06.2018 10:00:00 14,0 10,0 16 9 SW 10
17.06.2018 09:00:00 14,0 10,0 11 6 SSW 10
17.06.2018 08:00:00 13,0 10,0 18 10 SW 10
17.06.2018 07:00:00 13,0 10,0 9 5 SW 10
17.06.2018 06:00:00 12,0 10,0 9 5 SSW 10
17.06.2018 05:00:00 12,0 10,0 9 5 SW 10
17.06.2018 04:00:00 12,0 10,0 8 4 SW 10
17.06.2018 03:00:00 12,0 10,0 11 6 SW 10
17.06.2018 02:00:00 12,0 10,0 11 6 SSW 10
17.06.2018 01:00:00 13,0 10,0 9 5 SSW 10
17.06.2018 00:00:00 13,0 10,0 13 7 SSW 10
16.06.2018 23:00:00 14,0 10,0 13 7 SW 10
16.06.2018 22:00:00 14,0 9,0 18 10 SW 10
16.06.2018 21:00:00 15,0 9,0 24 13 WSW 10
16.06.2018 20:00:00 16,0 9,0 16 9 WSW 10
16.06.2018 19:00:00 16,0 9,0 22 12 W 10
16.06.2018 18:00:00 17,0 10,0 24 13 W 10
16.06.2018 17:00:00 15,0 11,0 22 12 W 10
16.06.2018 16:00:00 19,0 11,0 22 12 SSW 10
16.06.2018 15:00:00 18,0 11,0 16 9 SSW 10
16.06.2018 14:00:00 17,0 12,0 16 9 S 10

tt = temperature
td = dewpoint
ff = wind speed
dd = wind direction
vv = visibility

Next stations